Time;durP1;ratioP1;P1;durP2;ratioP2;P2;SDS_P1;SDS_P2;PMS_P1;PMS_P2;Temp;Humidity;BMP_temperature;BMP_pressure;BME280_temperature;BME280_humidity;BME280_pressure;Samples;Min_cycle;Max_cycle;Signal;HPM_P1;HPM_P2
2022/09/29 00:01:25;;;;;;;4.35;2.90;;;;;;;;;;5034258;28;20044;-70
2022/09/29 00:03:52;;;;;;;3.30;2.80;;;;;;;;;;5033552;28;20045;-70
2022/09/29 00:06:18;;;;;;;6.13;2.97;;;;;;;;;;5033005;28;20041;-70
2022/09/29 00:08:45;;;;;;;3.58;2.70;;;;;;;;;;5016604;28;20045;-70
2022/09/29 00:11:12;;;;;;;6.28;2.67;;;;;;;;;;5032878;28;20046;-70
2022/09/29 00:13:38;;;;;;;4.03;2.80;;;;;;;;;;5034488;28;20390;-70
2022/09/29 00:16:05;;;;;;;5.50;2.40;;;;;;;;;;5034300;28;20041;-70
2022/09/29 00:18:32;;;;;;;3.53;2.70;;;;;;;;;;5032963;28;20478;-70
2022/09/29 00:21:02;;;;;;;7.03;2.95;;;;;;;;;;5032868;28;20041;-70
2022/09/29 00:23:29;;;;;;;8.80;2.63;;;;;;;;;;5031992;28;20039;-70
2022/09/29 00:26:10;;;;;;;2.60;2.13;;;8.60;99.90;;;;;;5033036;28;20428;-70
2022/09/29 00:28:38;;;;;;;4.43;2.55;;;;;;;;;;5016216;28;20128;-70
2022/09/29 00:31:05;;;;;;;3.38;2.63;;;8.40;99.90;;;;;;5032882;28;20120;-70
2022/09/29 00:33:32;;;;;;;2.80;2.40;;;;;;;;;;5032734;28;20037;-70
2022/09/29 00:36:00;;;;;;;3.42;2.88;;;;;;;;;;5032879;28;20095;-70
2022/09/29 00:38:26;;;;;;;3.53;2.90;;;;;;;;;;5033582;28;20044;-70
2022/09/29 00:40:53;;;;;;;2.50;2.30;;;;;;;;;;5032464;28;20048;-70
2022/09/29 00:43:24;;;;;;;4.07;2.75;;;8.50;99.90;;;;;;5032594;28;20068;-70
2022/09/29 00:45:53;;;;;;;4.10;3.00;;;8.50;99.90;;;;;;5032763;28;20073;-70
2022/09/29 00:48:26;;;;;;;4.05;3.03;;;8.60;99.90;;;;;;5032292;28;20490;-70
2022/09/29 00:50:54;;;;;;;3.40;2.90;;;8.40;99.90;;;;;;5033251;28;20121;-70
2022/09/29 00:53:20;;;;;;;3.75;3.13;;;;;;;;;;5015481;28;20068;-70
2022/09/29 00:55:55;;;;;;;4.63;3.00;;;8.30;99.90;;;;;;5031586;28;20107;-70
2022/09/29 00:58:32;;;;;;;3.97;3.30;;;8.60;99.90;;;;;;5032211;28;20038;-70
2022/09/29 01:00:58;;;;;;;4.50;3.60;;;;;;;;;;5032135;28;20444;-70
2022/09/29 01:03:29;;;;;;;6.45;3.55;;;8.30;99.90;;;;;;5032585;28;20037;-70
2022/09/29 01:06:09;;;;;;;7.03;3.55;;;;;;;;;;5031669;28;20037;-70
2022/09/29 01:08:47;;;;;;;7.63;3.70;;;8.30;99.90;;;;;;5032303;28;20072;-70
2022/09/29 01:11:13;;;;;;;5.50;3.30;;;;;;;;;;5031866;28;20538;-70
2022/09/29 01:13:40;;;;;;;4.45;3.28;;;;;;;;;;5032088;28;20048;-70
2022/09/29 01:16:07;;;;;;;4.07;3.30;;;;;;;;;;5033139;28;20122;-70
2022/09/29 01:18:33;;;;;;;4.40;3.40;;;;;;;;;;5031642;28;20093;-70
2022/09/29 01:21:30;;;;;;;5.43;4.15;;;8.30;99.90;;;;;;5032089;28;20045;-70
2022/09/29 01:24:20;;;;;;;5.18;3.95;;;8.10;99.90;;;;;;5031419;28;20129;-70
2022/09/29 01:26:55;;;;;;;4.97;3.50;;;;;;;;;;5031880;28;20041;-70
2022/09/29 01:29:37;;;;;;;5.53;3.90;;;;;;;;;;5031688;28;20139;-70
2022/09/29 01:32:10;;;;;;;5.07;3.67;;;;;;;;;;5031184;28;20179;-70
2022/09/29 01:34:50;;;;;;;4.47;3.67;;;8.30;99.90;;;;;;5031325;28;20069;-70
2022/09/29 01:37:31;;;;;;;5.13;3.55;;;;;;;;;;5031271;28;20502;-70
2022/09/29 01:40:11;;;;;;;4.50;4.00;;;;;;;;;;5031429;28;20057;-70
2022/09/29 01:43:01;;;;;;;5.00;3.58;;;8.20;99.90;;;;;;5031269;28;20046;-70
2022/09/29 01:45:33;;;;;;;4.82;3.90;;;;;;;;;;5040545;28;20037;-70
2022/09/29 01:48:01;;;;;;;6.50;3.92;;;;;;;;;;5031193;28;20055;-70
2022/09/29 01:50:30;;;;;;;5.90;3.47;;;;;;;;;;5031684;28;20107;-70
2022/09/29 01:53:02;;;;;;;5.47;3.67;;;8.10;99.90;;;;;;5031144;28;20041;-70
2022/09/29 01:55:30;;;;;;;;;;;8.20;99.90;;;;;;5031777;28;20041;-70
2022/09/29 01:58:09;;;;;;;4.47;3.70;;;8.10;99.90;;;;;;5030796;28;19921;-70
2022/09/29 02:00:49;;;;;;;5.57;4.43;;;;;;;;;;5031518;28;20041;-70
2022/09/29 02:03:24;;;;;;;6.43;3.80;;;;;;;;;;5030924;28;20121;-70
2022/09/29 02:05:50;;;;;;;4.97;3.55;;;;;;;;;;5031578;28;20076;-70
2022/09/29 02:08:18;;;;;;;4.25;3.60;;;;;;;;;;5030925;28;20037;-70
2022/09/29 02:11:05;;;;;;;4.03;3.38;;;;;;;;;;5031112;28;20037;-70
2022/09/29 02:13:32;;;;;;;4.47;3.55;;;;;;;;;;5047474;28;20056;-70
2022/09/29 02:15:59;;;;;;;5.20;3.60;;;;;;;;;;5030998;28;20041;-70
2022/09/29 02:18:52;;;;;;;3.40;3.05;;;7.90;99.90;;;;;;5030615;28;20494;-70
2022/09/29 02:21:18;;;;;;;3.45;3.08;;;;;;;;;;5029546;28;20132;-70
2022/09/29 02:23:47;;;;;;;3.83;2.85;;;;;;;;;;5014545;28;20040;-70
2022/09/29 02:26:14;;;;;;;4.05;3.20;;;;;;;;;;5031011;28;20045;-70
2022/09/29 02:28:41;;;;;;;3.67;3.05;;;7.80;99.90;;;;;;5013959;28;20034;-70
2022/09/29 02:31:07;;;;;;;4.57;3.00;;;;;;;;;;5032045;28;20116;-70
2022/09/29 02:33:33;;;;;;;4.05;2.97;;;;;;;;;;5030837;28;20041;-70
2022/09/29 02:36:05;;;;;;;4.45;3.10;;;;;;;;;;5030961;28;20167;-70
2022/09/29 02:38:40;;;;;;;4.53;3.13;;;7.60;99.90;;;;;;5030394;28;20042;-70
2022/09/29 02:41:10;;;;;;;3.50;3.08;;;7.50;99.90;;;;;;5030994;28;20040;-70
2022/09/29 02:44:16;;;;;;;3.78;3.17;;;7.40;99.90;;;;;;5030576;28;20529;-70
2022/09/29 02:46:54;;;;;;;4.68;3.30;;;;;;;;;;5033680;28;20037;-70
2022/09/29 02:49:28;;;;;;;3.67;3.28;;;7.40;99.90;;;;;;5034799;28;20046;-70
2022/09/29 02:52:20;;;;;;;4.53;3.47;;;7.40;99.90;;;;;;5034334;28;20041;-70
2022/09/29 02:55:12;;;;;;;3.75;3.35;;;7.50;99.90;;;;;;5034565;28;20037;-70
2022/09/29 02:57:44;;;;;;;5.25;3.28;;;7.60;99.90;;;;;;5034553;28;20099;-70
2022/09/29 03:00:13;;;;;;;4.65;3.58;;;7.50;99.90;;;;;;5034572;28;20038;-70
2022/09/29 03:02:40;;;;;;;5.57;3.63;;;;;;;;;;5017795;28;20037;-70
2022/09/29 03:05:18;;;;;;;4.95;3.92;;;7.70;99.90;;;;;;5034267;28;20505;-70
2022/09/29 03:07:44;;;;;;;4.85;3.53;;;;;;;;;;5034283;28;20107;-70
2022/09/29 03:10:12;;;;;;;5.70;3.60;;;7.50;99.90;;;;;;5031766;28;20045;-70
2022/09/29 03:12:38;;;;;;;7.15;3.40;;;;;;;;;;5033854;28;20397;-70
2022/09/29 03:15:06;;;;;;;8.18;4.32;;;7.50;99.90;;;;;;5034460;28;20041;-70
2022/09/29 03:17:32;;;;;;;7.45;3.88;;;;;;;;;;5017402;28;20050;-70
2022/09/29 03:19:58;;;;;;;6.55;3.90;;;;;;;;;;5034120;28;20485;-70
2022/09/29 03:22:24;;;;;;;7.25;4.03;;;;;;;;;;5034304;28;20072;-69
2022/09/29 03:24:50;;;;;;;8.45;4.03;;;;;;;;;;5034401;28;20354;-70
2022/09/29 03:27:16;;;;;;;5.22;4.07;;;;;;;;;;5033871;28;20045;-70
2022/09/29 03:29:43;;;;;;;5.38;4.20;;;;;;;;;;5035154;28;20382;-70
2022/09/29 03:32:09;;;;;;;7.85;4.40;;;;;;;;;;5017331;28;20101;-70
2022/09/29 03:34:35;;;;;;;8.32;4.20;;;;;;;;;;5033796;28;20091;-70
2022/09/29 03:37:04;;;;;;;5.95;3.92;;;;;;;;;;5034781;28;20113;-70
2022/09/29 03:39:30;;;;;;;12.55;3.80;;;;;;;;;;5033268;28;20099;-70
2022/09/29 03:41:57;;;;;;;5.43;3.88;;;;;;;;;;5017264;28;20041;-70
2022/09/29 03:44:23;;;;;;;7.90;3.63;;;;;;;;;;5017213;28;20056;-70
2022/09/29 03:46:49;;;;;;;5.35;3.50;;;;;;;;;;5033562;28;20038;-70
2022/09/29 03:49:15;;;;;;;10.68;4.10;;;;;;;;;;5016931;28;20458;-70
2022/09/29 03:51:41;;;;;;;31.35;4.43;;;;;;;;;;5032329;28;20121;-70
2022/09/29 03:54:08;;;;;;;18.25;4.05;;;;;;;;;;5033381;28;20037;-70
2022/09/29 03:56:34;;;;;;;8.63;3.80;;;6.10;99.90;;;;;;5033154;28;20037;-70
2022/09/29 03:59:02;;;;;;;99.43;4.90;;;;;;;;;;5033018;28;20063;-70
2022/09/29 04:01:28;;;;;;;3.92;3.53;;;;;;;;;;5014953;28;20037;-70
2022/09/29 04:03:56;;;;;;;8.50;4.30;;;;;;;;;;5022547;28;20041;-70
2022/09/29 04:06:22;;;;;;;29.60;4.53;;;;;;;;;;5016012;28;20184;-70
2022/09/29 04:08:48;;;;;;;6.80;4.38;;;;;;;;;;5032997;28;20374;-70
2022/09/29 04:11:14;;;;;;;4.88;4.38;;;;;;;;;;5031652;28;20110;-70
2022/09/29 04:13:40;;;;;;;5.75;4.53;;;;;;;;;;5032773;28;20041;-70
2022/09/29 04:16:07;;;;;;;5.95;4.60;;;;;;;;;;5032297;28;20034;-70
2022/09/29 04:18:33;;;;;;;27.30;5.60;;;7.30;99.90;;;;;;5052457;28;20044;-70
2022/09/29 04:20:59;;;;;;;6.18;4.70;;;;;;;;;;5048668;28;20038;-70
2022/09/29 04:23:28;;;;;;;8.77;4.90;;;;;;;;;;5017519;28;20052;-70
2022/09/29 04:25:54;;;;;;;7.20;5.55;;;;;;;;;;5033953;28;20383;-70
2022/09/29 04:28:21;;;;;;;84.57;6.63;;;;;;;;;;5034021;28;20079;-70
2022/09/29 04:30:47;;;;;;;85.80;6.78;;;;;;;;;;5033867;28;20045;-70
2022/09/29 04:33:13;;;;;;;15.25;6.30;;;;;;;;;;5033739;28;20128;-70
2022/09/29 04:35:39;;;;;;;10.32;6.18;;;;;;;;;;5033797;28;20200;-70
2022/09/29 04:38:07;;;;;;;23.75;6.88;;;;;;;;;;5033832;28;20067;-70
2022/09/29 04:40:33;;;;;;;21.95;6.70;;;;;;;;;;5033593;28;20131;-70
2022/09/29 04:42:59;;;;;;;40.30;7.63;;;;;;;;;;5033671;28;20500;-70
2022/09/29 04:45:25;;;;;;;11.80;6.70;;;;;;;;;;5029384;28;20385;-70
2022/09/29 04:47:51;;;;;;;27.27;7.53;;;;;;;;;;5029687;28;20045;-70
2022/09/29 04:50:17;;;;;;;9.52;6.85;;;;;;;;;;5029180;28;20045;-70
2022/09/29 04:52:44;;;;;;;9.38;7.00;;;;;;;;;;5012112;28;20041;-70
2022/09/29 04:55:11;;;;;;;9.73;7.13;;;;;;;;;;5028878;28;20041;-70
2022/09/29 04:57:38;;;;;;;9.15;6.80;;;;;;;;;;5028494;28;20512;-70
2022/09/29 05:00:06;;;;;;;14.85;8.23;;;;;;;;;;5012368;28;20064;-69
2022/09/29 05:02:32;;;;;;;9.77;7.30;;;;;;;;;;5028583;28;20148;-70
2022/09/29 05:04:58;;;;;;;19.13;8.60;;;;;;;;;;5030017;28;20045;-69
2022/09/29 05:07:24;;;;;;;10.73;7.88;;;;;;;;;;5030097;28;20045;-70
2022/09/29 05:09:50;;;;;;;101.43;9.40;;;;;;;;;;5027474;28;20044;-70
2022/09/29 05:12:16;;;;;;;33.63;7.57;;;;;;;;;;5028368;28;20046;-69
2022/09/29 05:14:42;;;;;;;24.23;8.48;;;;;;;;;;5027861;28;20171;-69
2022/09/29 05:17:09;;;;;;;24.35;7.97;;;;;;;;;;5012430;28;20033;-70
2022/09/29 05:19:37;;;;;;;26.20;7.85;;;;;;;;;;5027670;28;20499;-70
2022/09/29 05:22:05;;;;;;;56.55;8.70;;;7.80;99.90;;;;;;5025867;28;20612;-70
2022/09/29 05:24:34;;;;;;;40.33;9.07;;;;;;;;;;5015439;28;20112;-70
2022/09/29 05:27:03;;;;;;;72.15;9.02;;;;;;;;;;5025726;28;20048;-71
2022/09/29 05:29:29;;;;;;;28.67;8.25;;;;;;;;;;5009155;28;20037;-71
2022/09/29 05:31:55;;;;;;;13.40;8.55;;;;;;;;;;5024939;28;20486;-71
2022/09/29 05:34:21;;;;;;;10.48;7.97;;;;;;;;;;5026118;28;20037;-71
2022/09/29 05:36:48;;;;;;;18.85;8.45;;;;;;;;;;5025074;28;20045;-71
2022/09/29 05:39:16;;;;;;;36.47;8.75;;;;;;;;;;5009445;28;20046;-71
2022/09/29 05:41:42;;;;;;;20.67;8.52;;;;;;;;;;5025706;28;20052;-71
2022/09/29 05:44:09;;;;;;;28.17;8.38;;;;;;;;;;5009319;28;20072;-71
2022/09/29 05:46:35;;;;;;;23.20;8.38;;;;;;;;;;5025630;28;20156;-70
2022/09/29 05:49:12;;;;;;;24.05;8.43;;;;;;;;;;5010916;28;20405;-71
2022/09/29 05:51:38;;;;;;;70.13;8.93;;;;;;;;;;5022314;28;20130;-71
2022/09/29 05:54:04;;;;;;;230.07;9.85;;;;;;;;;;5030393;28;20473;-71
2022/09/29 05:56:30;;;;;;;32.50;9.40;;;;;;;;;;5028741;28;20053;-71
2022/09/29 05:58:57;;;;;;;40.70;9.40;;;;;;;;;;5030375;28;20050;-71
2022/09/29 06:01:23;;;;;;;24.15;9.25;;;;;;;;;;5029975;28;20096;-71
2022/09/29 06:03:50;;;;;;;52.08;9.05;;;;;;;;;;5029061;28;20449;-71
2022/09/29 06:06:21;;;;;;;78.10;10.25;;;7.70;99.90;;;;;;5031090;28;20045;-71
2022/09/29 06:08:48;;;;;;;83.40;10.35;;;;;;;;;;5030429;28;20037;-71
2022/09/29 06:11:19;;;;;;;24.73;8.77;;;7.70;99.90;;;;;;5029702;28;20136;-71
2022/09/29 06:13:46;;;;;;;43.35;11.20;;;;;;;;;;5029636;28;20052;-70
2022/09/29 06:16:13;;;;;;;32.58;10.13;;;7.80;99.90;;;;;;5030200;28;20060;-71
2022/09/29 06:18:40;;;;;;;29.27;6.43;;;;;;;;;;5030424;28;20107;-70
2022/09/29 06:21:11;;;;;;;170.85;11.60;;;8.00;99.90;;;;;;5030326;28;20033;-70
2022/09/29 06:23:38;;;;;;;49.28;10.80;;;;;;;;;;5030218;28;20048;-70
2022/09/29 06:26:06;;;;;;;98.35;12.25;;;;;;;;;;5030520;28;20064;-70
2022/09/29 06:28:32;;;;;;;43.33;10.80;;;;;;;;;;5030761;28;20069;-70
2022/09/29 06:31:04;;;;;;;60.25;10.10;;;8.10;99.90;;;;;;5013370;28;20064;-70
2022/09/29 06:33:31;;;;;;;50.38;9.85;;;;;;;;;;5020406;28;20044;-70
2022/09/29 06:38:42;;;;;;;14.48;9.57;;;;;;;;;;5031058;28;20477;-70
2022/09/29 06:41:08;;;;;;;22.33;9.73;;;;;;;;;;5046045;28;20092;-70
2022/09/29 06:43:35;;;;;;;37.25;10.88;;;;;;;;;;5033174;28;20070;-70
2022/09/29 06:46:01;;;;;;;24.15;10.55;;;;;;;;;;5046022;28;20069;-70
2022/09/29 06:48:28;;;;;;;27.23;11.60;;;;;;;;;;5027503;28;20041;-71
2022/09/29 06:50:55;;;;;;;29.40;11.35;;;;;;;;;;5044896;28;20099;-71
2022/09/29 06:53:21;;;;;;;19.77;11.48;;;;;;;;;;4995711;28;20037;-71
2022/09/29 06:55:59;;;;;;;24.98;12.00;;;8.30;99.90;;;;;;5027478;28;20041;-71
2022/09/29 06:58:25;;;;;;;18.98;11.80;;;;;;;;;;5028192;28;20056;-71
2022/09/29 07:00:52;;;;;;;25.08;15.30;;;;;;;;;;5027954;28;20038;-71
2022/09/29 07:03:18;;;;;;;21.02;13.45;;;;;;;;;;5023329;28;20052;-71
2022/09/29 07:05:44;;;;;;;20.30;13.32;;;;;;;;;;5042097;28;20041;-71
2022/09/29 07:08:10;;;;;;;21.83;13.18;;;;;;;;;;5024848;28;20116;-71
2022/09/29 07:10:36;;;;;;;19.25;9.77;;;;;;;;;;5016820;28;20068;-70
2022/09/29 07:13:02;;;;;;;22.80;13.57;;;;;;;;;;5030053;28;20048;-70
2022/09/29 07:15:31;;;;;;;35.60;14.40;;;;;;;;;;5031840;28;20045;-70
2022/09/29 07:17:58;;;;;;;28.05;14.45;;;;;;;;;;5015215;28;20048;-71
2022/09/29 07:20:25;;;;;;;22.42;11.32;;;8.70;99.90;;;;;;5015072;28;20049;-71
2022/09/29 07:22:52;;;;;;;18.40;12.05;;;;;;;;;;5029447;28;20037;-71
2022/09/29 07:25:18;;;;;;;22.20;12.52;;;;;;;;;;5029658;28;20038;-71
2022/09/29 07:27:44;;;;;;;19.45;12.25;;;;;;;;;;5030951;28;20046;-71
2022/09/29 07:30:10;;;;;;;32.55;12.70;;;;;;;;;;5030778;28;20069;-71
2022/09/29 07:32:36;;;;;;;41.28;14.95;;;;;;;;;;5032818;28;20045;-71
2022/09/29 07:35:02;;;;;;;22.13;13.10;;;;;;;;;;5034854;28;20128;-71
2022/09/29 07:37:29;;;;;;;24.45;13.48;;;;;;;;;;5035108;28;20435;-70
2022/09/29 07:39:55;;;;;;;20.60;13.45;;;;;;;;;;5034660;28;20132;-71
2022/09/29 07:42:21;;;;;;;22.50;13.65;;;;;;;;;;5035234;28;20059;-71
2022/09/29 07:44:48;;;;;;;24.00;13.30;;;;;;;;;;5034864;28;20049;-71
2022/09/29 07:47:14;;;;;;;27.25;14.60;;;;;;;;;;5034942;28;20444;-71
2022/09/29 07:49:41;;;;;;;21.60;13.98;;;;;;;;;;5034719;28;20041;-71
2022/09/29 07:52:07;;;;;;;26.25;14.35;;;;;;;;;;5034955;28;20119;-71
2022/09/29 07:54:33;;;;;;;28.55;12.98;;;;;;;;;;5034657;28;20482;-71
2022/09/29 07:57:02;;;;;;;21.38;13.55;;;;;;;;;;5034742;28;20132;-71
2022/09/29 07:59:28;;;;;;;25.17;14.93;;;;;;;;;;5034234;28;20049;-71
2022/09/29 08:01:54;;;;;;;24.13;14.48;;;;;;;;;;5035860;28;20075;-71
2022/09/29 08:04:20;;;;;;;21.27;14.73;;;;;;;;;;5034563;28;20088;-71
2022/09/29 08:06:46;;;;;;;24.98;14.85;;;;;;;;;;5034356;28;20037;-71
2022/09/29 08:09:13;;;;;;;22.55;14.85;;;;;;;;;;5034187;28;20048;-71
2022/09/29 08:11:40;;;;;;;21.30;14.65;;;;;;;;;;5034251;28;20144;-71
2022/09/29 08:14:07;;;;;;;22.27;15.63;;;9.60;99.90;;;;;;5034049;28;20045;-71
2022/09/29 08:16:33;;;;;;;28.98;15.52;;;;;;;;;;5034006;28;20080;-71
2022/09/29 08:19:00;;;;;;;25.33;16.50;;;9.70;99.90;;;;;;5017661;28;20049;-71
2022/09/29 08:21:26;;;;;;;23.63;15.48;;;;;;;;;;5034333;28;20041;-71
2022/09/29 08:23:52;;;;;;;23.55;14.40;;;;;;;;;;5034374;28;20390;-71
2022/09/29 08:26:20;;;;;;;21.55;15.77;;;10.00;99.90;;;;;;5018202;28;20382;-71
2022/09/29 08:28:46;;;;;;;21.05;14.32;;;;;;;;;;5034006;28;20044;-71
2022/09/29 08:31:19;;;;;;;23.92;14.90;;;9.90;99.90;;;;;;5017040;28;20075;-71
2022/09/29 08:33:45;;;;;;;22.23;14.68;;;;;;;;;;5033789;28;20041;-71
2022/09/29 08:36:15;;;;;;;23.95;15.23;;;;;;;;;;5033957;28;20049;-71
2022/09/29 08:38:49;;;;;;;22.95;14.70;;;10.40;99.90;;;;;;5033470;28;20042;-71
2022/09/29 08:41:15;;;;;;;21.95;14.30;;;;;;;;;;5033569;28;20569;-71
2022/09/29 08:43:43;;;;;;;23.52;15.82;;;10.20;99.90;;;;;;5033038;28;20432;-71
2022/09/29 08:46:30;;;;;;;21.50;14.60;;;;;;;;;;5033713;28;20041;-71
2022/09/29 08:48:57;;;;;;;23.60;15.45;;;;;;;;;;5033514;28;20129;-71
2022/09/29 08:51:32;;;;;;;24.27;16.40;;;;;;;;;;5017230;28;20092;-71
2022/09/29 08:54:02;;;;;;;30.80;16.05;;;;;;;;;;5033716;28;20508;-70
2022/09/29 08:56:28;;;;;;;20.38;13.35;;;;;;;;;;5033393;28;20041;-71
2022/09/29 08:58:54;;;;;;;21.50;14.50;;;;;;;;;;5033276;28;20092;-71
2022/09/29 09:01:26;;;;;;;24.67;15.20;;;;;;;;;;5033083;28;20105;-71
2022/09/29 09:04:27;;;;;;;19.75;13.88;;;10.80;99.90;;;;;;5033275;28;20037;-71
2022/09/29 09:06:53;;;;;;;23.73;14.73;;;;;;;;;;5000870;28;20119;-71
2022/09/29 09:09:38;;;;;;;21.92;14.13;;;11.40;99.90;;;;;;5033441;28;20041;-71
2022/09/29 09:12:08;;;;;;;17.42;11.48;;;;;;;;;;5016149;28;20083;-78
2022/09/29 09:14:50;;;;;;;20.58;12.07;;;;;;;;;;5016070;28;20042;-70
2022/09/29 09:17:28;;;;;;;;;;;11.60;99.90;;;;;;5015949;28;20077;-71
2022/09/29 09:20:03;;;;;;;20.63;11.30;;;11.50;99.90;;;;;;5049247;28;20365;-71
2022/09/29 09:22:51;;;;;;;15.80;9.52;;;11.60;99.90;;;;;;5032794;28;20034;-71
2022/09/29 09:25:29;;;;;;;20.00;9.40;;;11.70;99.90;;;;;;5032571;28;20046;-71
2022/09/29 09:28:02;;;;;;;11.80;9.07;;;;;;;;;;5032157;28;20048;-71
2022/09/29 09:30:30;;;;;;;12.05;8.45;;;;;;;;;;5031392;28;20045;-71
2022/09/29 09:33:01;;;;;;;13.15;9.48;;;11.80;99.90;;;;;;5014617;28;20041;-74
2022/09/29 09:35:30;;;;;;;12.43;8.10;;;;;;;;;;5031186;28;20049;-75
2022/09/29 09:38:00;;;;;;;14.82;7.50;;;;;;;;;;5035821;28;20437;-74
2022/09/29 09:40:28;;;;;;;12.13;7.30;;;;;;;;;;5052522;28;20519;-74
2022/09/29 09:43:10;;;;;;;11.32;7.22;;;12.50;99.90;;;;;;5013040;28;20041;-74
2022/09/29 09:45:51;;;;;;;10.50;6.83;;;12.20;99.90;;;;;;5012175;28;20489;-74
2022/09/29 09:48:33;;;;;;;10.02;6.47;;;12.40;99.90;;;;;;5016783;28;20038;-74
2022/09/29 09:51:19;;;;;;;8.18;5.68;;;;;;;;;;5013786;28;20144;-74
2022/09/29 09:53:47;;;;;;;11.73;5.60;;;;;;;;;;5042770;28;20482;-74
2022/09/29 09:56:30;;;;;;;10.48;5.65;;;;;;;;;;5031012;28;20049;-74
2022/09/29 09:59:03;;;;;;;12.05;5.75;;;;;;;;;;5029185;28;20420;-74
2022/09/29 10:01:29;;;;;;;9.50;5.60;;;;;;;;;;5031646;28;20036;-74
2022/09/29 10:03:57;;;;;;;10.15;6.53;;;;;;;;;;5031666;28;20038;-74
2022/09/29 10:06:23;;;;;;;12.63;5.65;;;;;;;;;;5028694;28;20048;-74
2022/09/29 10:08:49;;;;;;;8.43;4.57;;;;;;;;;;5028672;28;20069;-74
2022/09/29 10:11:25;;;;;;;7.75;4.60;;;13.40;99.90;;;;;;5031609;28;20041;-74
2022/09/29 10:14:02;;;;;;;7.10;4.43;;;13.40;99.90;;;;;;5012074;28;20501;-74
2022/09/29 10:16:41;;;;;;;7.32;5.00;;;13.60;99.90;;;;;;5031532;28;20044;-74
2022/09/29 10:19:09;;;;;;;6.28;5.00;;;;;;;;;;5026085;28;20052;-74
2022/09/29 10:21:40;;;;;;;6.35;3.85;;;13.50;99.90;;;;;;5030568;28;20033;-74
2022/09/29 10:24:26;;;;;;;11.77;4.18;;;13.30;99.90;;;;;;5035936;28;20037;-74
2022/09/29 10:26:54;;;;;;;4.63;3.00;;;;;;;;;;5031541;28;20091;-73
2022/09/29 10:29:29;;;;;;;5.30;3.13;;;;;;;;;;5028394;28;20049;-73
2022/09/29 10:32:01;;;;;;;12.00;3.60;;;;;;;;;;5015182;28;20044;-74
2022/09/29 10:34:28;;;;;;;5.45;3.03;;;13.70;99.90;;;;;;5031173;28;20156;-73
2022/09/29 10:36:58;;;;;;;7.13;3.85;;;;;;;;;;5031480;28;20056;-73
2022/09/29 10:39:33;;;;;;;3.85;2.70;;;14.10;99.90;;;;;;5031406;28;20083;-73
2022/09/29 10:41:59;;;;;;;3.33;2.30;;;;;;;;;;5031426;28;20045;-74
2022/09/29 10:44:31;;;;;;;3.83;2.30;;;14.50;99.90;;;;;;5014895;28;20096;-73
2022/09/29 10:46:57;;;;;;;4.05;2.10;;;;;;;;;;5031953;28;20127;-73
2022/09/29 10:49:27;;;;;;;3.17;1.90;;;14.50;99.90;;;;;;5030985;28;20565;-74
2022/09/29 10:51:59;;;;;;;1.73;1.27;;;14.60;99.90;;;;;;5031817;28;20128;-74
2022/09/29 10:54:27;;;;;;;2.78;0.80;;;14.40;99.90;;;;;;5031330;28;20466;-73
2022/09/29 10:56:55;;;;;;;5.90;2.00;;;14.50;99.90;;;;;;5014501;28;20128;-73
2022/09/29 10:59:23;;;;;;;2.92;1.50;;;14.40;99.90;;;;;;5030939;28;20103;-73
2022/09/29 11:02:12;;;;;;;2.47;1.50;;;;;;;;;;5015116;28;20532;-73
2022/09/29 11:04:39;;;;;;;2.63;1.45;;;;;;;;;;5031507;28;20030;-73
2022/09/29 11:07:11;;;;;;;2.35;1.40;;;14.10;99.90;;;;;;5032951;28;20106;-74
2022/09/29 11:09:43;;;;;;;2.20;1.40;;;14.30;99.90;;;;;;5035481;28;20041;-73
2022/09/29 11:12:27;;;;;;;4.03;1.80;;;;;;;;;;5035812;28;20069;-73
2022/09/29 11:14:54;;;;;;;3.50;2.22;;;;;;;;;;5035009;28;20084;-73
2022/09/29 11:17:52;;;;;;;3.20;2.45;;;14.20;99.90;;;;;;5034874;28;20490;-73
2022/09/29 11:20:20;;;;;;;3.08;2.17;;;14.20;99.90;;;;;;5023736;28;20460;-73
2022/09/29 11:22:52;;;;;;;5.57;2.00;;;14.20;99.90;;;;;;5034791;28;20865;-73
2022/09/29 11:25:46;;;;;;;5.07;2.05;;;14.40;99.90;;;;;;5029463;28;20121;-73
2022/09/29 11:28:25;;;;;;;4.25;2.05;;;;;;;;;;5033221;28;20052;-73
2022/09/29 11:31:26;;;;;;;2.67;2.03;;;14.00;99.90;;;;;;5030721;28;20136;-73
2022/09/29 11:34:33;;;;;;;2.72;1.60;;;13.90;99.90;;;;;;5027940;28;20551;-73
2022/09/29 11:37:06;;;;;;;3.13;1.25;;;;;;;;;;5026447;28;20069;-73
2022/09/29 11:39:44;;;;;;;1.10;1.00;;;;;;;;;;5015285;28;20168;-73
2022/09/29 11:42:25;;;;;;;1.38;1.27;;;;;;;;;;5043408;28;20072;-73
2022/09/29 11:44:57;;;;;;;4.38;1.60;;;14.30;99.00;;;;;;5023352;28;20064;-73
2022/09/29 11:47:59;;;;;;;3.30;1.77;;;14.30;99.60;;;;;;5034941;28;20057;-73
2022/09/29 11:50:37;;;;;;;1.95;1.50;;;14.30;99.50;;;;;;5034222;28;20046;-72
2022/09/29 11:53:18;;;;;;;4.22;1.70;;;14.30;99.50;;;;;;5017235;28;20128;-73
2022/09/29 11:56:31;;;;;;;4.88;1.92;;;14.20;99.90;;;;;;5035716;28;20052;-72
2022/09/29 11:59:31;;;;;;;6.22;1.85;;;14.40;99.90;;;;;;5012963;28;20050;-72
2022/09/29 12:02:35;;;;;;;4.65;1.70;;;14.30;99.90;;;;;;5022977;28;20068;-73
2022/09/29 12:05:06;;;;;;;4.25;1.65;;;;;;;;;;5010050;28;20050;-74
2022/09/29 12:07:43;;;;;;;2.95;1.60;;;;;;;;;;5031749;28;20042;-75
2022/09/29 12:10:12;;;;;;;2.88;1.70;;;;;;;;;;5028601;28;20386;-73
2022/09/29 12:12:46;;;;;;;3.90;1.83;;;;;;;;;;5030226;28;20060;-73
2022/09/29 12:15:23;;;;;;;3.05;1.95;;;;;;;;;;5026411;28;20037;-76
2022/09/29 12:17:56;;;;;;;6.22;1.80;;;;;;;;;;5030930;28;20052;-73
2022/09/29 12:20:25;;;;;;;1.80;1.35;;;;;;;;;;5030648;28;20041;-73
2022/09/29 12:22:53;;;;;;;5.50;1.33;;;15.20;99.90;;;;;;5030970;28;20095;-73
2022/09/29 12:25:26;;;;;;;4.22;1.50;;;15.40;99.70;;;;;;5028220;28;20034;-73
2022/09/29 12:27:52;;;;;;;;;;;;;;;;;;5032858;28;20068;-73
2022/09/29 12:30:18;;;;;;;3.47;1.83;;;;;;;;;;5030328;28;19971;-73
2022/09/29 12:32:50;;;;;;;3.17;1.65;;;16.30;98.50;;;;;;5032693;28;20518;-73
2022/09/29 12:35:39;;;;;;;1.67;1.50;;;16.10;98.40;;;;;;5030377;28;20042;-73
2022/09/29 12:38:26;;;;;;;4.22;1.88;;;16.40;97.30;;;;;;5032669;28;20485;-73
2022/09/29 12:41:25;;;;;;;1.98;1.42;;;16.40;98.00;;;;;;5043640;28;20045;-73
2022/09/29 12:44:04;;;;;;;2.22;1.40;;;;;;;;;;5033491;28;20083;-73
2022/09/29 12:46:41;;;;;;;2.15;1.42;;;16.20;96.80;;;;;;5033302;28;20045;-74
2022/09/29 12:49:30;;;;;;;3.38;1.20;;;16.20;96.00;;;;;;5029788;28;20131;-73
2022/09/29 12:51:56;;;;;;;3.17;1.30;;;15.90;96.90;;;;;;5036448;28;20065;-73
2022/09/29 12:54:45;;;;;;;2.55;0.93;;;15.90;96.00;;;;;;5033899;28;20049;-73
2022/09/29 12:57:24;;;;;;;3.45;0.90;;;15.80;97.00;;;;;;5016789;28;20041;-73
2022/09/29 13:00:04;;;;;;;0.80;0.80;;;15.50;96.10;;;;;;5016492;28;20117;-73
2022/09/29 13:02:49;;;;;;;3.10;1.10;;;15.10;96.40;;;;;;5033047;28;20542;-71
2022/09/29 13:05:15;;;;;;;1.23;0.98;;;;;;;;;;5032467;28;20033;-71
2022/09/29 13:08:00;;;;;;;2.15;0.88;;;15.00;97.00;;;;;;5033452;28;20072;-70
2022/09/29 13:10:47;;;;;;;2.17;1.00;;;14.80;96.40;;;;;;5016089;28;20041;-71
2022/09/29 13:13:24;;;;;;;1.35;0.73;;;;;;;;;;5031976;28;20098;-71
2022/09/29 13:16:10;;;;;;;1.80;0.80;;;14.80;97.00;;;;;;5032255;28;20045;-71
2022/09/29 13:18:39;;;;;;;1.20;0.70;;;;;;;;;;5032593;28;20482;-71
2022/09/29 13:21:31;;;;;;;0.73;0.73;;;14.90;97.40;;;;;;5032709;28;20037;-71
2022/09/29 13:24:12;;;;;;;2.63;0.80;;;15.70;99.90;;;;;;5000853;28;20133;-71
2022/09/29 13:27:20;;;;;;;2.15;0.77;;;14.80;96.60;;;;;;5007942;28;20281;-71
2022/09/29 13:29:53;;;;;;;1.90;0.70;;;14.60;97.50;;;;;;5032327;28;20064;-70
2022/09/29 13:32:19;;;;;;;2.72;0.70;;;;;;;;;;5032392;28;20048;-70
2022/09/29 13:34:53;;;;;;;0.70;0.65;;;;;;;;;;5016359;28;20049;-71
2022/09/29 13:37:21;;;;;;;2.42;0.70;;;15.30;97.70;;;;;;5030965;28;20029;-71
2022/09/29 13:39:55;;;;;;;3.17;0.70;;;15.30;97.10;;;;;;5029196;28;20160;-71
2022/09/29 13:42:41;;;;;;;4.03;0.60;;;15.10;96.90;;;;;;5031687;28;20046;-71
2022/09/29 13:45:36;;;;;;;0.68;0.50;;;;;;;;;;5032490;28;20090;-71
2022/09/29 13:48:30;;;;;;;1.00;0.68;;;15.10;96.20;;;;;;5032139;28;20060;-71
2022/09/29 13:50:59;;;;;;;0.80;0.70;;;;;;;;;;5025234;28;20034;-72
2022/09/29 13:53:25;;;;;;;1.15;0.70;;;;;;;;;;5023291;28;20051;-71
2022/09/29 13:56:08;;;;;;;1.50;0.63;;;15.70;96.10;;;;;;5014610;28;20037;-71
2022/09/29 13:58:47;;;;;;;0.50;0.50;;;16.20;96.70;;;;;;5031364;28;20037;-71
2022/09/29 14:01:28;;;;;;;2.58;0.77;;;;;;;;;;5029242;28;20046;-71
2022/09/29 14:03:55;;;;;;;0.45;0.40;;;16.40;94.50;;;;;;5032304;28;20041;-71
2022/09/29 14:06:31;;;;;;;2.60;0.40;;;16.30;98.30;;;;;;5031844;28;20144;-71
2022/09/29 14:09:03;;;;;;;0.73;0.50;;;;;;;;;;5015010;28;20474;-71
2022/09/29 14:11:49;;;;;;;;;;;16.20;94.10;;;;;;5032803;28;20490;-71
2022/09/29 14:14:15;;;;;;;2.25;0.75;;;;;;;;;;5031501;28;19923;-71
2022/09/29 14:16:41;;;;;;;0.60;0.60;;;;;;;;;;5032344;28;20042;-71
2022/09/29 14:19:20;;;;;;;0.95;0.55;;;16.40;94.10;;;;;;5031412;28;20037;-71
2022/09/29 14:21:55;;;;;;;1.55;0.60;;;16.50;94.10;;;;;;5012391;28;20041;-71
2022/09/29 14:24:36;;;;;;;1.75;0.52;;;16.40;93.00;;;;;;5028722;28;20039;-71